Time;durP1;ratioP1;P1;durP2;ratioP2;P2;SDS_P1;SDS_P2;PMS_P1;PMS_P2;Temp;Humidity;BMP_temperature;BMP_pressure;BME280_temperature;BME280_humidity;BME280_pressure;Samples;Min_cycle;Max_cycle;Signal;HPM_P1;HPM_P2
2023/06/11 00:01:08;;;;;;;9.18;6.50;;;;;;;;;;5013162;28;20042;-72
2023/06/11 00:03:40;;;;;;;11.15;7.00;;;;;;;;;;5011602;28;20038;-71
2023/06/11 00:06:09;;;;;;;11.63;7.70;;;;;;;;;;5012575;28;20038;-72
2023/06/11 00:08:35;;;;;;;10.05;6.85;;;;;;;;;;4999469;28;20482;-72
2023/06/11 00:11:00;;;;;;;11.70;6.82;;;;;;;;;;5013828;28;20030;-71
2023/06/11 00:13:27;;;;;;;9.95;6.93;;;;;;;;;;5013823;28;20030;-71
2023/06/11 00:15:52;;;;;;;10.70;7.15;;;;;;;;;;5013905;28;20041;-71
2023/06/11 00:18:17;;;;;;;12.43;6.80;;;;;;;;;;5013200;28;20044;-71
2023/06/11 00:20:43;;;;;;;9.98;6.75;;;;;;;;;;5010582;28;20042;-71
2023/06/11 00:23:08;;;;;;;12.73;7.43;;;;;;;;;;5013465;28;20042;-71
2023/06/11 00:25:33;;;;;;;11.18;7.47;;;;;;;;;;5012495;28;20030;-71
2023/06/11 00:27:59;;;;;;;11.50;7.00;;;;;;;;;;5013612;28;20033;-71
2023/06/11 00:30:24;;;;;;;10.50;6.82;;;;;;;;;;5013571;28;20034;-71
2023/06/11 00:32:50;;;;;;;9.77;7.38;;;;;;;;;;5013168;28;20124;-71
2023/06/11 00:35:16;;;;;;;10.70;6.80;;;;;;;;;;5011923;28;20041;-71
2023/06/11 00:37:42;;;;;;;12.07;7.43;;;;;;;;;;5013515;28;20034;-72
2023/06/11 00:40:08;;;;;;;14.40;8.23;;;;;;;;;;5004767;28;20030;-72
2023/06/11 00:42:33;;;;;;;12.30;7.82;;;;;;;;;;5013511;28;20041;-71
2023/06/11 00:45:01;;;;;;;11.93;7.85;;;;;;;;;;5013280;28;20038;-72
2023/06/11 00:47:26;;;;;;;11.65;7.97;;;;;;;;;;5001618;28;20092;-72
2023/06/11 00:49:52;;;;;;;14.52;8.10;;;;;;;;;;5012363;28;20486;-71
2023/06/11 00:52:19;;;;;;;13.27;7.43;;;;;;;;;;5013266;28;20041;-71
2023/06/11 00:54:44;;;;;;;11.43;7.82;;;;;;;;;;5012283;28;20072;-72
2023/06/11 00:57:10;;;;;;;12.88;8.70;;;;;;;;;;5013205;28;20033;-72
2023/06/11 00:59:37;;;;;;;13.63;8.77;;;;;;;;;;5012987;28;20045;-71
2023/06/11 01:02:12;;;;;;;11.75;7.82;;;;;;;;;;5012849;28;20132;-71
2023/06/11 01:04:39;;;;;;;9.77;7.85;;;;;;;;;;5011526;28;20116;-71
2023/06/11 01:07:07;;;;;;;16.23;8.23;;;;;;;;;;5013056;28;20034;-71
2023/06/11 01:09:32;;;;;;;17.88;7.47;;;;;;;;;;5005431;28;20501;-71
2023/06/11 01:11:58;;;;;;;14.02;8.07;;;;;;;;;;5011670;28;20105;-71
2023/06/11 01:14:24;;;;;;;13.13;8.93;;;;;;;;;;5013072;28;20061;-71
2023/06/11 01:17:04;;;;;;;12.88;8.40;;;;;;;;;;5011129;28;20034;-71
2023/06/11 01:19:38;;;;;;;14.07;7.75;;;;;;;;;;5006102;28;20045;-71
2023/06/11 01:22:16;;;;;;;16.77;8.60;;;;;;;;;;5012601;28;20397;-71
2023/06/11 01:25:03;;;;;;;15.18;8.60;;;;;;;;;;5012124;28;20092;-71
2023/06/11 01:28:02;;;;;;;14.48;8.90;;;;;;;;;;5012975;28;20041;-72
2023/06/11 01:30:30;;;;;;;14.80;9.13;;;;;;;;;;5011008;28;20104;-71
2023/06/11 01:32:56;;;;;;;13.98;8.93;;;;;;;;;;5012559;28;20095;-71
2023/06/11 01:35:22;;;;;;;16.02;9.35;;;;;;;;;;5012016;28;20065;-71
2023/06/11 01:37:55;;;;;;;15.93;9.40;;;;;;;;;;5011800;28;20095;-71
2023/06/11 01:40:22;;;;;;;15.60;9.95;;;;;;;;;;5008495;28;20168;-71
2023/06/11 01:42:48;;;;;;;16.05;9.68;;;;;;;;;;5012954;28;20042;-71
2023/06/11 01:45:13;;;;;;;14.48;9.60;;;;;;;;;;5012646;28;20030;-71
2023/06/11 01:47:40;;;;;;;15.05;8.45;;;;;;;;;;5011117;28;20729;-71
2023/06/11 01:50:06;;;;;;;17.20;9.43;;;;;;;;;;5009268;28;20425;-71
2023/06/11 01:52:31;;;;;;;20.05;10.88;;;;;;;;;;5013823;28;20057;-71
2023/06/11 01:54:57;;;;;;;19.25;9.90;;;;;;;;;;5016398;28;20504;-71
2023/06/11 01:57:22;;;;;;;16.55;9.93;;;;;;;;;;5015876;28;20058;-71
2023/06/11 01:59:47;;;;;;;18.52;10.15;;;;;;;;;;5011189;28;20084;-72
2023/06/11 02:02:13;;;;;;;21.98;9.68;;;;;;;;;;5014511;28;20033;-71
2023/06/11 02:04:38;;;;;;;16.95;9.13;;;;;;;;;;5016103;28;20046;-71
2023/06/11 02:07:03;;;;;;;14.55;9.57;;;;;;;;;;5016234;28;20036;-71
2023/06/11 02:09:29;;;;;;;18.20;9.50;;;;;;;;;;5015132;28;20398;-71
2023/06/11 02:11:54;;;;;;;16.85;9.80;;;;;;;;;;5016111;28;20505;-71
2023/06/11 02:14:20;;;;;;;14.80;9.45;;;;;;;;;;5016140;28;20057;-71
2023/06/11 02:16:45;;;;;;;17.25;9.52;;;;;;;;;;5016000;28;20034;-71
2023/06/11 02:19:10;;;;;;;15.80;9.98;;;;;;;;;;5016162;28;20057;-71
2023/06/11 02:21:36;;;;;;;16.58;9.65;;;;;;;;;;5016064;28;20037;-72
2023/06/11 02:24:01;;;;;;;12.70;9.13;;;;;;;;;;5015668;28;20030;-71
2023/06/11 02:26:26;;;;;;;15.98;9.88;;;;;;;;;;5015842;28;20040;-72
2023/06/11 02:28:52;;;;;;;15.65;9.57;;;;;;;;;;5014785;28;20037;-71
2023/06/11 02:31:17;;;;;;;15.45;9.32;;;;;;;;;;5015586;28;20449;-72
2023/06/11 02:33:43;;;;;;;13.98;9.65;;;;;;;;;;5014427;28;20042;-72
2023/06/11 02:36:08;;;;;;;13.95;9.25;;;;;;;;;;5015486;28;20026;-71
2023/06/11 02:38:33;;;;;;;12.30;8.48;;;;;;;;;;5014592;28;20025;-71
2023/06/11 02:40:59;;;;;;;14.40;8.98;;;;;;;;;;5015590;28;20385;-72
2023/06/11 02:43:24;;;;;;;12.32;8.77;;;;;;;;;;5015278;28;22299;-71
2023/06/11 02:45:49;;;;;;;14.50;9.05;;;;;;;;;;5015744;28;20393;-71
2023/06/11 02:48:15;;;;;;;13.07;8.57;;;;;;;;;;5015559;28;20050;-71
2023/06/11 02:50:40;;;;;;;13.23;8.45;;;;;;;;;;5015635;28;20030;-71
2023/06/11 02:53:05;;;;;;;12.05;8.35;;;;;;;;;;5007246;28;20087;-71
2023/06/11 02:55:31;;;;;;;14.65;8.75;;;;;;;;;;5015685;28;20041;-72
2023/06/11 02:57:56;;;;;;;11.52;8.80;;;;;;;;;;5013673;28;20050;-71
2023/06/11 03:00:21;;;;;;;12.05;8.82;;;;;;;;;;5015105;28;20038;-72
2023/06/11 03:02:47;;;;;;;13.60;8.40;;;;;;;;;;5014898;28;20034;-71
2023/06/11 03:05:12;;;;;;;12.38;8.00;;;;;;;;;;5015104;28;20044;-72
2023/06/11 03:07:37;;;;;;;11.88;8.43;;;;;;;;;;5015310;28;20426;-72
2023/06/11 03:10:03;;;;;;;13.45;8.68;;;;;;;;;;5015186;28;20046;-71
2023/06/11 03:12:29;;;;;;;10.70;8.00;;;;;;;;;;5014932;28;20046;-72
2023/06/11 03:14:54;;;;;;;12.57;7.55;;;;;;;;;;5015134;28;20034;-72
2023/06/11 03:17:19;;;;;;;11.40;8.00;;;;;;;;;;5013519;28;20124;-72
2023/06/11 03:19:45;;;;;;;13.25;8.60;;;;;;;;;;5011700;28;20113;-72
2023/06/11 03:22:10;;;;;;;11.02;8.43;;;;;;;;;;5014909;28;20071;-71
2023/06/11 03:24:35;;;;;;;10.60;8.02;;;;;;;;;;5014913;28;20068;-72
2023/06/11 03:27:01;;;;;;;11.95;7.97;;;;;;;;;;5014700;28;20060;-71
2023/06/11 03:29:26;;;;;;;11.73;8.60;;;;;;;;;;5013812;28;20452;-72
2023/06/11 03:31:51;;;;;;;12.05;8.25;;;;;;;;;;5014651;28;20116;-72
2023/06/11 03:34:17;;;;;;;10.05;7.80;;;;;;;;;;5014734;28;20088;-72
2023/06/11 03:36:42;;;;;;;14.95;8.93;;;;;;;;;;5014536;28;20120;-71
2023/06/11 03:39:07;;;;;;;12.40;8.43;;;;;;;;;;5014527;28;20092;-71
2023/06/11 03:41:33;;;;;;;11.77;8.88;;;;;;;;;;5009671;28;20042;-71
2023/06/11 03:43:58;;;;;;;11.30;8.35;;;;;;;;;;5006368;28;20029;-71
2023/06/11 03:46:24;;;;;;;15.63;8.65;;;;;;;;;;5012902;28;20040;-71
2023/06/11 03:48:49;;;;;;;13.52;8.45;;;;;;;;;;5014332;28;20095;-71
2023/06/11 03:51:15;;;;;;;9.93;7.80;;;;;;;;;;5011036;28;20389;-72
2023/06/11 03:53:41;;;;;;;12.20;7.78;;;;;;;;;;5013509;28;20394;-72
2023/06/11 03:56:06;;;;;;;12.60;7.97;;;;;;;;;;5014222;28;20049;-71
2023/06/11 03:58:31;;;;;;;11.77;7.32;;;;;;;;;;5014054;28;20103;-72
2023/06/11 04:00:57;;;;;;;13.50;8.30;;;;;;;;;;5014230;28;20049;-71
2023/06/11 04:03:22;;;;;;;11.65;8.35;;;;;;;;;;5005587;28;20041;-72
2023/06/11 04:05:47;;;;;;;12.40;7.95;;;;;;;;;;5008569;28;20041;-72
2023/06/11 04:08:13;;;;;;;11.30;8.50;;;;;;;;;;5012533;28;20750;-71
2023/06/11 04:10:38;;;;;;;13.23;8.00;;;;;;;;;;5014770;28;20034;-71
2023/06/11 04:13:03;;;;;;;12.35;8.73;;;;;;;;;;5013842;28;20034;-71
2023/06/11 04:15:30;;;;;;;11.27;8.20;;;;;;;;;;5013471;28;20037;-72
2023/06/11 04:17:55;;;;;;;11.30;7.85;;;;;;;;;;5011761;28;20473;-71
2023/06/11 04:20:21;;;;;;;10.23;7.90;;;;;;;;;;5013948;28;20052;-71
2023/06/11 04:22:46;;;;;;;13.50;8.25;;;;;;;;;;5013714;28;20486;-71
2023/06/11 04:25:12;;;;;;;10.70;7.65;;;;;;;;;;5013882;28;20393;-71
2023/06/11 04:27:38;;;;;;;11.82;7.75;;;;;;;;;;5012537;28;20403;-71
2023/06/11 04:30:04;;;;;;;13.77;8.65;;;;;;;;;;5013642;28;20137;-71
2023/06/11 04:32:34;;;;;;;14.52;8.35;;;;;;;;;;5012206;28;20037;-72
2023/06/11 04:35:03;;;;;;;12.48;8.93;;;;;;;;;;5013924;28;20042;-72
2023/06/11 04:37:30;;;;;;;10.43;7.93;;;;;;;;;;5012101;28;20041;-71
2023/06/11 04:39:57;;;;;;;11.73;8.75;;;;;;;;;;5009704;28;20033;-71
2023/06/11 04:42:24;;;;;;;14.35;8.63;;;;;;;;;;5012486;28;20045;-72
2023/06/11 04:44:50;;;;;;;13.20;8.75;;;;;;;;;;5013328;28;20103;-72
2023/06/11 04:47:16;;;;;;;13.57;8.23;;;;;;;;;;5008818;28;20078;-71
2023/06/11 04:49:44;;;;;;;13.27;8.38;;;;;;;;;;5013627;28;20475;-71
2023/06/11 04:52:09;;;;;;;12.73;8.35;;;;;;;;;;5013067;28;20029;-72
2023/06/11 04:54:34;;;;;;;14.45;7.97;;;;;;;;;;5013568;28;20042;-72
2023/06/11 04:57:00;;;;;;;10.85;7.63;;;;;;;;;;5005650;28;20096;-72
2023/06/11 04:59:26;;;;;;;12.32;8.70;;;;;;;;;;4985325;28;20117;-72
2023/06/11 05:01:53;;;;;;;14.20;7.70;;;;;;;;;;4993400;28;20065;-71
2023/06/11 05:04:19;;;;;;;13.18;8.27;;;;;;;;;;4993446;28;20053;-71
2023/06/11 05:06:48;;;;;;;10.05;7.07;;;;;;;;;;4993624;28;20066;-72
2023/06/11 05:09:13;;;;;;;11.13;7.93;;;;;;;;;;4990824;28;20121;-72
2023/06/11 05:11:43;;;;;;;10.13;6.78;;;;;;;;;;4993395;28;20117;-72
2023/06/11 05:14:10;;;;;;;11.70;7.45;;;;;;;;;;4992471;28;20073;-72
2023/06/11 05:16:35;;;;;;;10.85;7.90;;;;;;;;;;4993279;28;20033;-72
2023/06/11 05:19:01;;;;;;;11.55;8.25;;;;;;;;;;4989246;28;20391;-72
2023/06/11 05:21:27;;;;;;;12.10;7.47;;;;;;;;;;4990025;28;20050;-71
2023/06/11 05:23:53;;;;;;;13.13;8.35;;;;;;;;;;4993430;28;20120;-72
2023/06/11 05:26:31;;;;;;;11.95;8.52;;;;;;;;;;4994176;28;20030;-71
2023/06/11 05:28:56;;;;;;;13.02;8.65;;;;;;;;;;4992672;28;20126;-71
2023/06/11 05:31:23;;;;;;;12.88;9.20;;;;;;;;;;4995908;28;20077;-72
2023/06/11 05:33:49;;;;;;;16.38;9.02;;;;;;;;;;4997692;28;20034;-71
2023/06/11 05:36:15;;;;;;;10.85;7.80;;;;;;;;;;4993664;28;20038;-71
2023/06/11 05:38:40;;;;;;;12.20;8.40;;;;;;;;;;4985844;28;20041;-71
2023/06/11 05:41:06;;;;;;;11.68;8.43;;;;;;;;;;4996724;28;20443;-72
2023/06/11 05:43:31;;;;;;;10.80;8.15;;;;;;;;;;4997131;28;20030;-72
2023/06/11 05:45:56;;;;;;;11.00;7.72;;;;;;;;;;4997278;28;20034;-72
2023/06/11 05:48:22;;;;;;;10.38;7.47;;;;;;;;;;4996853;28;20030;-71
2023/06/11 05:50:47;;;;;;;11.43;7.55;;;;;;;;;;4997195;28;20045;-72
2023/06/11 05:53:13;;;;;;;13.63;8.73;;;;;;;;;;4996829;28;20041;-72
2023/06/11 05:55:38;;;;;;;11.70;8.45;;;;;;;;;;4997242;28;20046;-71
2023/06/11 05:58:05;;;;;;;12.80;7.65;;;;;;;;;;5005168;28;20088;-71
2023/06/11 06:00:30;;;;;;;11.25;8.43;;;;;;;;;;5014502;28;20537;-72
2023/06/11 06:02:55;;;;;;;12.00;8.52;;;;;;;;;;5015009;28;20113;-72
2023/06/11 06:05:22;;;;;;;11.02;7.88;;;;;;;;;;5016026;28;20046;-72
2023/06/11 06:07:47;;;;;;;13.40;8.05;;;;;;;;;;5016324;28;20030;-72
2023/06/11 06:10:13;;;;;;;9.50;7.72;;;;;;;;;;5016563;28;20042;-71
2023/06/11 06:12:38;;;;;;;12.27;7.20;;;;;;;;;;5015808;28;20037;-71
2023/06/11 06:15:04;;;;;;;11.68;8.38;;;;;;;;;;5015443;28;20072;-71
2023/06/11 06:17:29;;;;;;;15.85;8.93;;;;;;;;;;5015534;28;20038;-71
2023/06/11 06:19:54;;;;;;;12.60;7.55;;;;;;;;;;5015470;28;20482;-71
2023/06/11 06:22:20;;;;;;;12.35;7.63;;;;;;;;;;5015627;28;20426;-72
2023/06/11 06:24:45;;;;;;;10.48;8.18;;;;;;;;;;5011674;28;20030;-71
2023/06/11 06:27:11;;;;;;;12.38;8.82;;;;;;;;;;5014601;28;20497;-71
2023/06/11 06:29:38;;;;;;;14.25;8.55;;;;;;;;;;5012575;28;20064;-72
2023/06/11 06:32:04;;;;;;;15.23;9.10;;;;;;;;;;5008221;28;20034;-72
2023/06/11 06:34:30;;;;;;;10.85;8.23;;;;;;;;;;5015428;28;20477;-72
2023/06/11 06:36:55;;;;;;;10.85;8.02;;;;;;;;;;5015672;28;20033;-72
2023/06/11 06:39:20;;;;;;;9.85;7.40;;;;;;;;;;5014993;28;20037;-71
2023/06/11 06:41:46;;;;;;;12.93;9.02;;;;;;;;;;5015811;28;20038;-72
2023/06/11 06:44:11;;;;;;;13.05;9.00;;;;;;;;;;5015547;28;20041;-71
2023/06/11 06:46:36;;;;;;;12.38;8.73;;;;;;;;;;5012559;28;20116;-71
2023/06/11 06:49:02;;;;;;;11.75;8.82;;;;;;;;;;5015598;28;20029;-72
2023/06/11 06:51:29;;;;;;;13.32;9.00;;;;;;;;;;5014368;28;20034;-72
2023/06/11 06:53:54;;;;;;;12.20;8.77;;;;;;;;;;5015778;28;20030;-71
2023/06/11 06:56:21;;;;;;;11.68;8.68;;;;;;;;;;5015634;28;20042;-72
2023/06/11 06:58:47;;;;;;;11.40;7.97;;;;;;;;;;5012896;28;20045;-71
2023/06/11 07:01:13;;;;;;;11.80;9.02;;;;;;;;;;5009332;28;20057;-72
2023/06/11 07:03:38;;;;;;;12.75;9.30;;;;;;;;;;5014025;28;20034;-72
2023/06/11 07:06:03;;;;;;;11.13;8.43;;;;;;;;;;5014548;28;20069;-71
2023/06/11 07:08:29;;;;;;;11.85;8.57;;;;;;;;;;5015330;28;20081;-72
2023/06/11 07:10:55;;;;;;;12.32;9.23;;;;;;;;;;5014212;28;20092;-72
2023/06/11 07:13:21;;;;;;;15.98;8.98;;;;;;;;;;5013747;28;20390;-72
2023/06/11 07:15:47;;;;;;;17.95;11.98;;;;;;;;;;5013762;28;20442;-72
2023/06/11 07:18:13;;;;;;;20.60;11.95;;;;;;;;;;5015524;28;20046;-72
2023/06/11 07:20:38;;;;;;;19.05;12.57;;;;;;;;;;5013687;28;20056;-72
2023/06/11 07:23:03;;;;;;;11.93;8.68;;;;;;;;;;5014671;28;20069;-73
2023/06/11 07:25:30;;;;;;;14.68;9.77;;;;;;;;;;5014916;28;20050;-72
2023/06/11 07:27:57;;;;;;;16.33;11.68;;;;;;;;;;5013923;28;20075;-72
2023/06/11 07:30:24;;;;;;;19.45;11.38;;;;;;;;;;5013811;28;20038;-72
2023/06/11 07:32:50;;;;;;;19.05;12.25;;;;;;;;;;5014464;28;20522;-72
2023/06/11 07:35:16;;;;;;;19.77;13.07;;;;;;;;;;5013744;28;20029;-72
2023/06/11 07:37:41;;;;;;;20.27;12.23;;;;;;;;;;5014726;28;20048;-72
2023/06/11 07:40:07;;;;;;;17.63;12.32;;;;;;;;;;5014786;28;20068;-72
2023/06/11 07:42:33;;;;;;;21.92;13.40;;;;;;;;;;5013795;28;20084;-72
2023/06/11 07:44:58;;;;;;;21.25;12.50;;;;;;;;;;5014510;28;20042;-72
2023/06/11 07:47:23;;;;;;;19.85;12.80;;;;;;;;;;5014681;28;20501;-72
2023/06/11 07:49:49;;;;;;;20.75;12.68;;;;;;;;;;5013581;28;20037;-71
2023/06/11 07:52:15;;;;;;;18.70;13.30;;;;;;;;;;5014358;28;20038;-71
2023/06/11 07:54:41;;;;;;;21.15;13.38;;;;;;;;;;5011773;28;20493;-71
2023/06/11 07:57:06;;;;;;;19.52;13.88;;;;;;;;;;5012064;28;20494;-72
2023/06/11 07:59:32;;;;;;;21.50;13.82;;;;;;;;;;5014563;28;20073;-72
2023/06/11 08:01:57;;;;;;;21.00;13.68;;;;;;;;;;5013830;28;20041;-72
2023/06/11 08:04:22;;;;;;;17.55;12.25;;;;;;;;;;5014026;28;20037;-72
2023/06/11 08:06:48;;;;;;;19.50;13.05;;;;;;;;;;5013130;28;20050;-72
2023/06/11 08:09:13;;;;;;;17.55;12.43;;;;;;;;;;5013849;28;20041;-72
2023/06/11 08:11:41;;;;;;;17.80;13.00;;;;;;;;;;5012842;28;20030;-72
2023/06/11 08:14:06;;;;;;;21.13;12.38;;;;;;;;;;5013047;28;20133;-72
2023/06/11 08:16:32;;;;;;;18.00;12.05;;;;;;;;;;5013823;28;20121;-71
2023/06/11 08:18:58;;;;;;;16.38;12.20;;;;;;;;;;5014096;28;20061;-71
2023/06/11 08:21:24;;;;;;;18.52;12.77;;;;;;;;;;5012097;28;20494;-72
2023/06/11 08:23:51;;;;;;;17.45;11.80;;;;;;;;;;5011365;28;20034;-72
2023/06/11 08:26:17;;;;;;;19.33;12.32;;;;;;;;;;5013486;28;20084;-72
2023/06/11 08:28:43;;;;;;;20.90;11.88;;;;;;;;;;5013861;28;20041;-72
2023/06/11 08:31:08;;;;;;;20.80;12.73;;;;;;;;;;5014001;28;20046;-72
2023/06/11 08:33:33;;;;;;;20.15;11.80;;;;;;;;;;5014112;28;20026;-72
2023/06/11 08:35:58;;;;;;;18.20;12.05;;;;;;;;;;5014022;28;20394;-71
2023/06/11 08:38:28;;;;;;;20.77;12.00;;;;;;;;;;5013638;28;20508;-72
2023/06/11 08:40:53;;;;;;;20.40;13.02;;;;;;;;;;5013549;28;20488;-72
2023/06/11 08:43:19;;;;;;;17.95;11.98;;;;;;;;;;5012623;28;20042;-72
2023/06/11 08:45:45;;;;;;;15.82;12.10;;;;;;;;;;5013113;28;20474;-71
2023/06/11 08:48:11;;;;;;;18.65;11.90;;;;;;;;;;5012928;28;20038;-72
2023/06/11 08:50:37;;;;;;;16.60;12.07;;;;;;;;;;5011193;28;20489;-72
2023/06/11 08:53:02;;;;;;;18.33;12.25;;;;;;;;;;5012358;28;20045;-72
2023/06/11 08:55:29;;;;;;;17.65;11.23;;;;;;;;;;5011947;28;20048;-71
2023/06/11 08:57:54;;;;;;;16.08;11.50;;;;;;;;;;5012994;28;20402;-72
2023/06/11 09:00:21;;;;;;;19.13;12.90;;;;;;;;;;5013134;28;20029;-73
2023/06/11 09:02:46;;;;;;;19.73;12.73;;;;;;;;;;5013344;28;20034;-72
2023/06/11 09:05:11;;;;;;;15.52;10.73;;;;;;;;;;5013223;28;20087;-72
2023/06/11 09:07:37;;;;;;;19.02;12.75;;;;;;;;;;5013610;28;20034;-72
2023/06/11 09:10:10;;;;;;;18.20;12.35;;;;;;;;;;5013250;28;20512;-72
2023/06/11 09:12:35;;;;;;;;;;;;;;;;;;4996327;28;20121;-72
2023/06/11 09:15:06;;;;;;;15.07;10.27;;;;;;;;;;5013312;28;20438;-72
2023/06/11 09:17:39;;;;;;;13.85;10.63;;;;;;;;;;5012258;28;20771;-72
2023/06/11 09:20:09;;;;;;;13.65;10.05;;;;;;;;;;5013210;28;20042;-72
2023/06/11 09:22:37;;;;;;;14.25;11.43;;;;;;;;;;5011395;28;20118;-72
2023/06/11 09:25:04;;;;;;;17.27;10.43;;;;;;;;;;5013312;28;20030;-72
2023/06/11 09:27:29;;;;;;;13.48;11.07;;;;;;;;;;5013125;28;20044;-72
2023/06/11 09:29:55;;;;;;;15.85;11.25;;;;;;;;;;5013420;28;20029;-72
2023/06/11 09:32:20;;;;;;;14.52;10.88;;;;;;;;;;5012915;28;20484;-72
2023/06/11 09:34:46;;;;;;;15.30;10.90;;;;;;;;;;5013176;28;20049;-72
2023/06/11 09:37:11;;;;;;;13.77;10.88;;;;;;;;;;5013208;28;20046;-72
2023/06/11 09:39:39;;;;;;;14.52;10.60;;;;;;;;;;5011902;28;20034;-72
2023/06/11 09:42:05;;;;;;;15.90;11.10;;;;;;;;;;5011890;28;20049;-72
2023/06/11 09:44:33;;;;;;;16.45;11.10;;;;;;;;;;5013059;28;20434;-72
2023/06/11 09:46:59;;;;;;;15.10;10.60;;;;;;;;;;5013402;28;20057;-72
2023/06/11 09:49:25;;;;;;;20.80;10.35;;;;;;;;;;5012628;28;20494;-72
2023/06/11 09:51:51;;;;;;;16.13;11.10;;;;;;;;;;5013118;28;20073;-72
2023/06/11 09:54:17;;;;;;;20.05;13.27;;;;;;;;;;5012654;28;20064;-72
2023/06/11 09:56:43;;;;;;;19.50;14.75;;;;;;;;;;5011510;28;20037;-71
2023/06/11 09:59:10;;;;;;;21.42;15.48;;;;;;;;;;5011489;28;20077;-72
2023/06/11 10:01:35;;;;;;;24.33;15.73;;;;;;;;;;5011425;28;20389;-72
2023/06/11 10:04:01;;;;;;;23.95;17.02;;;;;;;;;;5012961;28;20040;-72
2023/06/11 10:06:32;;;;;;;23.67;16.42;;;;;;;;;;5011679;28;20034;-72
2023/06/11 10:08:58;;;;;;;21.63;15.50;;;;;;;;;;5005685;28;20030;-72
2023/06/11 10:11:24;;;;;;;22.88;15.45;;;;;;;;;;5006224;28;20089;-72
2023/06/11 10:13:58;;;;;;;25.13;15.30;;;;;;;;;;5012785;28;20050;-72
2023/06/11 10:16:23;;;;;;;28.25;14.50;;;;;;;;;;5014830;28;20026;-72
2023/06/11 10:18:50;;;;;;;24.67;15.77;;;;;;;;;;5014930;28;20501;-72
2023/06/11 10:21:15;;;;;;;29.20;15.63;;;;;;;;;;5014690;28;20038;-72
2023/06/11 10:23:42;;;;;;;25.85;15.55;;;;;;;;;;5016289;28;20042;-72
2023/06/11 10:26:11;;;;;;;32.88;16.20;;;;;;;;;;5015130;28;20038;-72
2023/06/11 10:28:52;;;;;;;24.35;15.07;;;;;;;;;;5014853;28;20038;-72
2023/06/11 10:31:25;;;;;;;20.25;14.65;;;;;;;;;;5014797;28;20509;-72
2023/06/11 10:33:50;;;;;;;25.42;15.02;;;;;;;;;;5015004;28;20041;-72
2023/06/11 10:36:25;;;;;;;28.17;17.13;;;;;;;;;;5015959;28;20379;-71
2023/06/11 10:39:25;;;;;;;27.10;16.40;;;;;;;;;;5014752;28;20437;-72
2023/06/11 10:42:02;;;;;;;26.40;16.63;;;;;;;;;;5009512;28;20068;-71
2023/06/11 10:44:29;;;;;;;22.73;16.10;;;;;;;;;;5013188;28;20052;-72
2023/06/11 10:46:55;;;;;;;25.77;16.25;;;;;;;;;;5014705;28;20037;-72
2023/06/11 10:49:26;;;;;;;24.83;15.90;;;;;;;;;;5015969;28;20096;-72
2023/06/11 10:51:52;;;;;;;28.45;17.42;;;;;;;;;;5014625;28;20033;-72
2023/06/11 10:54:25;;;;;;;26.05;16.33;;;;;;;;;;5015571;28;20092;-72
2023/06/11 10:56:51;;;;;;;27.77;16.08;;;;;;;;;;5015445;28;20533;-71
2023/06/11 10:59:18;;;;;;;25.42;15.48;;;;;;;;;;5012710;28;20137;-71
2023/06/11 11:01:43;;;;;;;28.33;16.08;;;;;;;;;;5014250;28;20052;-72
2023/06/11 11:04:08;;;;;;;27.63;15.63;;;;;;;;;;5015363;28;20034;-72
2023/06/11 11:06:36;;;;;;;29.25;16.10;;;;;;;;;;5014268;28;20033;-71
2023/06/11 11:09:02;;;;;;;23.10;15.10;;;;;;;;;;5015327;28;20038;-72
2023/06/11 11:11:28;;;;;;;24.13;14.70;;;;;;;;;;5015373;28;20038;-72
2023/06/11 11:13:53;;;;;;;27.95;15.02;;;;;;;;;;5014170;28;20471;-72
2023/06/11 11:16:19;;;;;;;22.85;14.02;;;;;;;;;;5014798;28;20041;-72
2023/06/11 11:18:48;;;;;;;23.35;14.20;;;;;;;;;;5014137;28;20091;-71
2023/06/11 11:21:14;;;;;;;21.60;14.18;;;;;;;;;;5015151;28;20037;-72
2023/06/11 11:23:40;;;;;;;23.88;12.90;;;;;;;;;;5014965;28;20046;-72
2023/06/11 11:26:06;;;;;;;24.88;13.93;;;;;;;;;;5014899;28;20080;-71
2023/06/11 11:28:32;;;;;;;24.25;14.65;;;;;;;;;;5014992;28;20060;-72
2023/06/11 11:30:58;;;;;;;20.85;13.73;;;;;;;;;;5015141;28;20045;-72
2023/06/11 11:33:23;;;;;;;23.88;14.63;;;;;;;;;;5013640;28;20092;-72
2023/06/11 11:35:51;;;;;;;23.85;15.13;;;;;;;;;;5014965;28;20104;-72
2023/06/11 11:38:17;;;;;;;23.63;14.43;;;;;;;;;;5014876;28;20069;-72
2023/06/11 11:40:42;;;;;;;19.45;13.82;;;;;;;;;;5014804;28;20455;-72
2023/06/11 11:43:12;;;;;;;21.00;13.38;;;;;;;;;;5014683;28;20029;-71
2023/06/11 11:45:37;;;;;;;24.08;14.70;;;;;;;;;;5014703;28;20042;-71
2023/06/11 11:48:03;;;;;;;30.40;16.27;;;;;;;;;;5013477;28;20355;-72
2023/06/11 11:50:33;;;;;;;30.58;14.93;;;;;;;;;;5014472;28;20034;-71
2023/06/11 11:53:12;;;;;;;25.13;14.32;;;;;;;;;;5014975;28;20030;-72
2023/06/11 11:55:47;;;;;;;26.50;14.77;;;;;;;;;;5014559;28;20037;-72
2023/06/11 11:58:14;;;;;;;22.13;13.93;;;;;;;;;;5014513;28;20088;-72
2023/06/11 12:00:51;;;;;;;20.70;14.30;;;;;;;;;;5014589;28;20048;-72
2023/06/11 12:03:21;;;;;;;21.45;14.50;;;;;;;;;;5027661;28;20038;-72
2023/06/11 12:05:59;;;;;;;24.92;14.45;;;;;;;;;;5013112;28;20052;-72
2023/06/11 12:08:25;;;;;;;24.83;15.13;;;;;;;;;;5012498;28;20072;-72
2023/06/11 12:10:51;;;;;;;19.52;12.82;;;;;;;;;;5013172;28;20065;-72
2023/06/11 12:13:16;;;;;;;23.88;12.85;;;;;;;;;;5014311;28;20514;-72
2023/06/11 12:15:42;;;;;;;19.52;11.23;;;;;;;;;;5014244;28;20048;-72
2023/06/11 12:18:07;;;;;;;15.52;9.73;;;;;;;;;;5013055;28;20068;-72
2023/06/11 12:20:32;;;;;;;21.95;10.98;;;;;;;;;;5014002;28;20042;-72
2023/06/11 12:22:58;;;;;;;16.70;10.00;;;;;;;;;;5012914;28;20041;-71
2023/06/11 12:25:25;;;;;;;12.75;9.77;;;;;;;;;;5011868;28;20037;-72
2023/06/11 12:27:51;;;;;;;14.05;9.52;;;;;;;;;;5013846;28;20053;-72
2023/06/11 12:30:17;;;;;;;17.63;9.80;;;;;;;;;;5011480;28;20449;-72
2023/06/11 12:32:42;;;;;;;16.45;9.40;;;;;;;;;;5009824;28;20034;-72
2023/06/11 12:35:08;;;;;;;12.45;9.07;;;;;;;;;;5006641;28;20071;-72
2023/06/11 12:37:34;;;;;;;13.68;9.40;;;;;;;;;;5012349;28;20042;-72
2023/06/11 12:40:00;;;;;;;17.10;9.10;;;;;;;;;;5008813;28;20034;-72
2023/06/11 12:42:27;;;;;;;15.10;9.13;;;;;;;;;;5010267;28;20122;-72
2023/06/11 12:44:52;;;;;;;20.88;9.20;;;;;;;;;;5004773;28;20038;-72
2023/06/11 12:47:18;;;;;;;13.25;8.57;;;;;;;;;;5011067;28;20049;-72
2023/06/11 12:49:43;;;;;;;13.95;8.68;;;;;;;;;;5011969;28;20466;-72
2023/06/11 12:52:12;;;;;;;16.83;9.20;;;;;;;;;;5012287;28;20057;-73
2023/06/11 12:54:39;;;;;;;14.00;9.27;;;;;;;;;;5013517;28;20026;-72
2023/06/11 12:57:04;;;;;;;15.25;9.02;;;;;;;;;;5013346;28;20084;-72
2023/06/11 12:59:30;;;;;;;13.18;8.45;;;;;;;;;;5013481;28;20477;-73
2023/06/11 13:01:55;;;;;;;14.23;8.75;;;;;;;;;;5013439;28;20040;-72
2023/06/11 13:04:21;;;;;;;15.48;8.98;;;;;;;;;;5009679;28;20036;-72
2023/06/11 13:06:46;;;;;;;15.02;8.25;;;;;;;;;;5010811;28;20034;-72
2023/06/11 13:09:11;;;;;;;14.88;8.75;;;;;;;;;;5013326;28;20044;-71
2023/06/11 13:11:37;;;;;;;12.75;7.93;;;;;;;;;;5012287;28;20037;-72
2023/06/11 13:14:04;;;;;;;14.15;8.27;;;;;;;;;;5011904;28;20278;-72
2023/06/11 13:16:30;;;;;;;19.95;10.90;;;;;;;;;;5013375;28;20045;-72
2023/06/11 13:18:59;;;;;;;19.63;12.50;;;;;;;;;;4997369;28;20034;-72
2023/06/11 13:21:25;;;;;;;20.75;13.07;;;;;;;;;;5011496;28;20053;-72
2023/06/11 13:23:51;;;;;;;23.67;13.80;;;;;;;;;;5011451;28;20037;-72
2023/06/11 13:26:16;;;;;;;23.35;15.18;;;;;;;;;;5013123;28;20065;-72
2023/06/11 13:28:43;;;;;;;26.05;16.35;;;;;;;;;;5013129;28;20072;-72
2023/06/11 13:31:09;;;;;;;21.88;15.15;;;;;;;;;;5010901;28;20026;-72
2023/06/11 13:33:34;;;;;;;25.52;15.73;;;;;;;;;;5013640;28;20134;-72
2023/06/11 13:36:00;;;;;;;26.88;16.08;;;;;;;;;;5011326;28;20544;-72
2023/06/11 13:38:26;;;;;;;22.67;15.35;;;;;;;;;;5009884;28;20038;-72
2023/06/11 13:40:51;;;;;;;23.88;14.65;;;;;;;;;;5010471;28;20037;-72
2023/06/11 13:43:16;;;;;;;20.20;14.75;;;;;;;;;;5012521;28;20048;-72
2023/06/11 13:45:46;;;;;;;23.65;14.93;;;;;;;;;;5011378;28;20470;-72
2023/06/11 13:48:16;;;;;;;25.92;14.30;;;;;;;;;;4995780;28;20124;-72
2023/06/11 13:50:44;;;;;;;22.75;15.02;;;;;;;;;;5015533;28;20037;-72
2023/06/11 13:53:10;;;;;;;25.65;14.80;;;;;;;;;;5016118;28;20362;-72
2023/06/11 13:55:36;;;;;;;20.73;15.13;;;;;;;;;;5015063;28;20033;-72
2023/06/11 13:58:02;;;;;;;29.48;16.08;;;;;;;;;;5016287;28;20057;-72
2023/06/11 14:00:28;;;;;;;26.92;16.58;;;;;;;;;;5015659;28;20076;-72
2023/06/11 14:02:53;;;;;;;23.73;15.82;;;;;;;;;;4999535;28;20120;-72
2023/06/11 14:05:18;;;;;;;28.27;16.70;;;;;;;;;;5015868;28;20422;-72
2023/06/11 14:07:44;;;;;;;31.00;17.27;;;;;;;;;;5015983;28;20554;-72
2023/06/11 14:10:10;;;;;;;25.95;16.52;;;;;;;;;;5012821;28;20394;-72
2023/06/11 14:12:35;;;;;;;32.85;16.42;;;;;;;;;;5014561;28;20394;-72
2023/06/11 14:15:00;;;;;;;26.45;16.17;;;;;;;;;;5014868;28;20116;-72
2023/06/11 14:17:28;;;;;;;24.20;15.57;;;;;;;;;;5014742;28;20104;-72
2023/06/11 14:19:53;;;;;;;26.70;16.80;;;;;;;;;;5014132;28;20049;-72
2023/06/11 14:22:20;;;;;;;27.75;16.77;;;;;;;;;;5012409;28;20042;-72